Terminal Aerodrome Forecast
Issued by NWS

Home | Current Version | Previous Version | Text Only | Print | Product List | Glossary On
Versions: 1 2 3 4 5 6 7 8 9 10 11 12 13 14 15 16 17 18
000
FTUS45 KFGZ 212300
TAFGCN
TAF
KGCN 212322Z 2200/2224 VRB06KT P6SM -SHRA SCT040 BKN060
      TEMPO 2200/2204 VRB10G20KT 4SM TSRA OVC030CB
     FM220500 VRB06KT P6SM FEW030 BKN090
     FM221600 22006KT P6SM SCT060=

USA.gov is the U.S. government's official web portal to all federal, state and local government web resources and services.